Time;durP1;ratioP1;P1;durP2;ratioP2;P2;SDS_P1;SDS_P2;PMS_P1;PMS_P2;Temp;Humidity;BMP_temperature;BMP_pressure;BME280_temperature;BME280_humidity;BME280_pressure;Samples;Min_cycle;Max_cycle;Signal;HPM_P1;HPM_P2
2023/06/13 00:01:14;;;;;;;8.05;7.38;;;18.30;99.90;;;;;;5111664;28;20177;-68
2023/06/13 00:03:40;;;;;;;8.32;7.63;;;18.20;99.90;;;;;;5111889;28;20165;-68
2023/06/13 00:06:07;;;;;;;8.63;7.28;;;18.10;99.90;;;;;;5111816;28;20616;-68
2023/06/13 00:08:33;;;;;;;6.95;6.45;;;18.00;99.90;;;;;;5111943;28;20161;-68
2023/06/13 00:10:59;;;;;;;6.70;6.03;;;18.00;99.90;;;;;;5111394;28;20169;-68
2023/06/13 00:13:25;;;;;;;7.93;6.60;;;18.00;99.90;;;;;;5110368;28;20702;-68
2023/06/13 00:15:56;;;;;;;8.00;6.77;;;17.90;99.90;;;;;;5114520;27;20188;-68
2023/06/13 00:18:23;;;;;;;7.23;6.63;;;17.80;99.90;;;;;;5111862;28;20699;-68
2023/06/13 00:20:52;;;;;;;7.43;6.83;;;17.70;99.90;;;;;;5111379;28;20165;-68
2023/06/13 00:23:17;;;;;;;7.53;6.27;;;17.70;99.90;;;;;;5111659;28;20198;-68
2023/06/13 00:25:43;;;;;;;9.33;7.00;;;17.70;99.90;;;;;;5110021;28;20208;-69
2023/06/13 00:28:10;;;;;;;7.73;7.00;;;17.60;99.90;;;;;;5111827;28;20196;-68
2023/06/13 00:30:35;;;;;;;7.63;7.07;;;17.60;99.90;;;;;;5111402;28;20165;-68
2023/06/13 00:33:01;;;;;;;8.05;7.40;;;17.60;99.90;;;;;;5111454;28;20263;-68
2023/06/13 00:35:26;;;;;;;6.27;5.80;;;17.50;99.90;;;;;;5111435;28;20191;-68
2023/06/13 00:37:56;;;;;;;6.20;5.80;;;17.50;99.90;;;;;;5111513;28;20229;-68
2023/06/13 00:40:22;;;;;;;6.60;5.90;;;17.50;99.90;;;;;;5111435;28;20192;-67
2023/06/13 00:42:53;;;;;;;6.50;5.97;;;17.40;99.90;;;;;;5111510;28;20164;-67
2023/06/13 00:45:25;;;;;;;6.10;5.60;;;17.40;99.90;;;;;;5111528;28;20207;-68
2023/06/13 00:47:54;;;;;;;6.87;6.37;;;17.30;99.90;;;;;;5112880;28;20229;-67
2023/06/13 00:50:26;;;;;;;8.03;7.33;;;17.30;99.90;;;;;;5115467;28;20172;-68
2023/06/13 00:52:52;;;;;;;7.10;6.40;;;17.20;99.90;;;;;;5115644;28;20165;-68
2023/06/13 00:55:18;;;;;;;6.27;5.70;;;17.20;99.90;;;;;;5115660;28;20219;-68
2023/06/13 00:57:43;;;;;;;6.87;6.13;;;17.20;99.90;;;;;;5115523;28;20196;-69
2023/06/13 01:00:10;;;;;;;7.00;6.40;;;17.20;99.90;;;;;;5115313;28;20172;-68
2023/06/13 01:02:36;;;;;;;6.93;6.43;;;17.10;99.90;;;;;;5115813;28;20506;-68
2023/06/13 01:05:02;;;;;;;6.70;6.10;;;17.10;99.90;;;;;;5114366;28;20177;-68
2023/06/13 01:07:33;;;;;;;6.53;6.13;;;17.00;99.90;;;;;;5115345;28;20192;-68
2023/06/13 01:09:59;;;;;;;7.40;6.70;;;17.00;99.90;;;;;;5115071;27;20198;-68
2023/06/13 01:12:45;;;;;;;6.63;6.10;;;17.10;99.90;;;;;;5113999;28;20165;-69
2023/06/13 01:15:16;;;;;;;8.20;7.40;;;17.00;99.90;;;;;;5115213;28;20218;-67
2023/06/13 01:17:57;;;;;;;7.37;6.77;;;17.00;99.90;;;;;;5113804;28;20184;-68
2023/06/13 01:20:26;;;;;;;8.30;7.57;;;16.90;99.90;;;;;;5114927;28;20671;-68
2023/06/13 01:23:16;;;;;;;8.13;7.33;;;16.80;99.90;;;;;;5115026;28;20181;-68
2023/06/13 01:26:03;;;;;;;7.50;6.80;;;16.80;99.90;;;;;;5114708;28;20235;-67
2023/06/13 01:28:33;;;;;;;7.30;6.80;;;16.70;99.90;;;;;;5115052;28;20175;-68
2023/06/13 01:31:01;;;;;;;6.67;6.07;;;16.70;99.90;;;;;;5114549;28;20165;-68
2023/06/13 01:33:28;;;;;;;7.50;6.70;;;16.60;99.90;;;;;;5110048;28;20196;-68
2023/06/13 01:35:53;;;;;;;7.67;7.00;;;16.60;99.90;;;;;;5092920;28;20204;-68
2023/06/13 01:38:19;;;;;;;8.23;7.43;;;16.70;99.90;;;;;;5093013;28;20261;-69
2023/06/13 01:40:47;;;;;;;7.70;6.90;;;16.70;99.90;;;;;;5093853;28;20639;-68
2023/06/13 01:43:12;;;;;;;9.23;8.37;;;16.70;99.90;;;;;;5094296;28;20201;-67
2023/06/13 01:45:39;;;;;;;9.57;8.87;;;16.70;99.90;;;;;;5094106;28;20243;-68
2023/06/13 01:48:13;;;;;;;8.07;7.38;;;16.70;99.90;;;;;;5094136;28;20642;-67
2023/06/13 01:50:52;;;;;;;9.98;9.15;;;16.70;99.90;;;;;;5093901;28;20274;-69
2023/06/13 01:53:36;;;;;;;9.80;8.90;;;16.70;99.90;;;;;;5093981;28;20218;-68
2023/06/13 01:56:11;;;;;;;8.70;8.00;;;16.70;99.90;;;;;;5093968;28;20204;-67
2023/06/13 01:58:56;;;;;;;8.60;7.90;;;16.70;99.90;;;;;;5093525;28;20256;-68
2023/06/13 02:01:24;;;;;;;7.70;7.07;;;16.60;99.90;;;;;;5092302;28;20274;-68
2023/06/13 02:03:50;;;;;;;9.57;8.63;;;16.60;99.90;;;;;;5093714;28;20173;-68
2023/06/13 02:06:16;;;;;;;8.87;8.10;;;16.60;99.90;;;;;;5093625;28;20208;-68
2023/06/13 02:08:41;;;;;;;8.70;8.00;;;16.60;99.90;;;;;;5092259;28;20170;-68
2023/06/13 02:11:07;;;;;;;10.70;9.90;;;16.50;99.90;;;;;;5093358;28;20503;-68
2023/06/13 02:13:33;;;;;;;8.23;7.43;;;16.50;99.90;;;;;;5092359;28;20179;-68
2023/06/13 02:15:58;;;;;;;9.43;8.53;;;16.50;99.90;;;;;;5095625;28;20193;-73
2023/06/13 02:18:25;;;;;;;8.27;7.67;;;16.40;99.90;;;;;;5095690;28;20178;-75
2023/06/13 02:20:50;;;;;;;8.67;7.20;;;16.30;99.90;;;;;;5096139;28;20172;-74
2023/06/13 02:23:16;;;;;;;7.60;7.00;;;16.30;99.90;;;;;;5095135;28;20550;-74
2023/06/13 02:25:41;;;;;;;8.60;7.93;;;16.20;99.90;;;;;;5096402;28;20216;-72
2023/06/13 02:28:07;;;;;;;9.43;8.50;;;16.10;99.90;;;;;;5097033;28;20197;-75
2023/06/13 02:30:33;;;;;;;9.93;8.80;;;16.00;99.90;;;;;;5096496;28;20177;-74
2023/06/13 02:33:01;;;;;;;9.13;8.37;;;16.00;99.90;;;;;;5096048;28;20177;-72
2023/06/13 02:35:26;;;;;;;9.00;8.33;;;16.00;99.90;;;;;;5116525;28;20184;-74
2023/06/13 02:37:53;;;;;;;9.50;7.57;;;15.90;99.90;;;;;;5116856;28;20645;-71
2023/06/13 02:40:19;;;;;;;8.57;7.87;;;15.90;99.90;;;;;;5116598;28;20641;-76
2023/06/13 02:42:49;;;;;;;8.57;7.87;;;15.80;99.90;;;;;;5115679;28;20206;-74
2023/06/13 02:45:16;;;;;;;8.13;7.23;;;15.70;99.90;;;;;;5117013;28;20212;-71
2023/06/13 02:47:42;;;;;;;7.73;7.13;;;15.60;99.90;;;;;;5116115;28;20212;-75
2023/06/13 02:50:08;;;;;;;10.57;7.50;;;15.60;99.90;;;;;;5116022;28;20627;-73
2023/06/13 02:52:34;;;;;;;8.30;7.70;;;15.60;99.90;;;;;;5108167;28;20184;-76
2023/06/13 02:54:59;;;;;;;9.10;7.97;;;15.50;99.90;;;;;;5110613;28;20525;-75
2023/06/13 02:57:25;;;;;;;10.57;9.73;;;15.50;99.90;;;;;;5114384;28;20176;-73
2023/06/13 02:59:51;;;;;;;8.50;7.80;;;15.50;99.90;;;;;;5095090;28;20187;-72
2023/06/13 03:02:20;;;;;;;8.77;8.07;;;15.40;99.90;;;;;;5095725;28;20700;-76
2023/06/13 03:04:47;;;;;;;7.80;7.10;;;15.40;99.90;;;;;;5096386;28;20173;-72
2023/06/13 03:07:16;;;;;;;8.10;7.20;;;15.30;99.90;;;;;;5100835;28;20205;-74
2023/06/13 03:09:42;;;;;;;8.70;7.80;;;15.30;99.90;;;;;;5104322;28;20505;-75
2023/06/13 03:12:08;;;;;;;9.60;8.73;;;15.30;99.90;;;;;;5115189;28;20194;-73
2023/06/13 03:14:34;;;;;;;10.80;9.97;;;15.20;99.90;;;;;;5102221;28;20668;-73
2023/06/13 03:17:02;;;;;;;13.40;12.60;;;15.20;99.90;;;;;;5095257;28;20197;-74
2023/06/13 03:19:28;;;;;;;10.53;9.77;;;15.20;99.90;;;;;;5094965;28;20177;-75
2023/06/13 03:21:54;;;;;;;9.17;8.47;;;15.20;99.90;;;;;;5101230;28;20181;-75
2023/06/13 03:24:20;;;;;;;7.83;7.13;;;15.20;99.90;;;;;;5115739;28;20208;-75
2023/06/13 03:26:46;;;;;;;7.43;6.90;;;15.10;99.90;;;;;;5107128;28;20208;-77
2023/06/13 03:29:12;;;;;;;7.80;6.93;;;15.10;99.90;;;;;;5095368;28;20165;-71
2023/06/13 03:31:38;;;;;;;9.63;8.50;;;15.10;99.90;;;;;;5095397;28;20173;-75
2023/06/13 03:34:05;;;;;;;8.40;7.60;;;15.10;99.90;;;;;;5094344;28;20176;-77
2023/06/13 03:36:34;;;;;;;9.63;8.70;;;15.10;99.90;;;;;;5095376;28;20216;-76
2023/06/13 03:39:00;;;;;;;8.90;8.00;;;15.20;99.90;;;;;;5102017;28;20511;-68
2023/06/13 03:41:26;;;;;;;7.43;6.77;;;15.10;99.90;;;;;;5112039;28;20176;-68
2023/06/13 03:43:51;;;;;;;8.37;7.40;;;15.10;99.90;;;;;;5110972;28;20230;-68
2023/06/13 03:46:17;;;;;;;9.33;8.43;;;15.10;99.90;;;;;;5112095;28;20201;-68
2023/06/13 03:48:43;;;;;;;10.53;7.57;;;15.20;99.90;;;;;;5112378;28;20657;-69
2023/06/13 03:51:08;;;;;;;9.37;8.63;;;15.20;99.90;;;;;;5112257;28;20161;-68
2023/06/13 03:53:34;;;;;;;8.90;7.90;;;15.30;99.90;;;;;;5110775;28;20168;-69
2023/06/13 03:56:00;;;;;;;8.93;8.23;;;15.30;99.90;;;;;;5111991;28;20196;-69
2023/06/13 03:58:26;;;;;;;9.30;8.50;;;15.30;99.90;;;;;;5112206;28;20532;-69
2023/06/13 04:00:54;;;;;;;8.47;7.70;;;15.40;99.90;;;;;;5111748;28;20172;-69
2023/06/13 04:03:19;;;;;;;9.67;8.83;;;15.30;99.90;;;;;;5112053;28;20169;-68
2023/06/13 04:05:45;;;;;;;9.23;8.33;;;15.40;99.90;;;;;;5111758;28;20200;-69
2023/06/13 04:08:11;;;;;;;8.40;7.70;;;15.40;99.90;;;;;;5112164;28;20200;-68
2023/06/13 04:10:37;;;;;;;9.07;7.73;;;15.50;99.90;;;;;;5111721;28;20164;-68
2023/06/13 04:13:02;;;;;;;8.60;7.80;;;15.50;99.90;;;;;;5111944;28;20173;-68
2023/06/13 04:15:29;;;;;;;8.43;7.63;;;15.60;99.90;;;;;;5102835;28;20197;-69
2023/06/13 04:17:55;;;;;;;9.30;7.43;;;15.70;99.90;;;;;;5091477;28;20189;-69
2023/06/13 04:20:24;;;;;;;8.13;7.33;;;15.70;99.90;;;;;;5090108;28;20634;-69
2023/06/13 04:22:52;;;;;;;8.17;7.37;;;15.80;99.90;;;;;;5091330;28;20607;-68
2023/06/13 04:25:17;;;;;;;7.80;7.07;;;15.80;99.90;;;;;;5091197;28;20189;-69
2023/06/13 04:27:44;;;;;;;8.13;7.50;;;15.90;99.90;;;;;;5091255;28;20200;-69
2023/06/13 04:30:11;;;;;;;9.17;8.43;;;16.00;99.90;;;;;;5091218;28;20157;-69
2023/06/13 04:32:39;;;;;;;10.17;6.80;;;16.10;99.90;;;;;;5091516;28;20200;-69
2023/06/13 04:35:05;;;;;;;8.33;7.53;;;16.30;99.90;;;;;;5090558;28;20176;-69
2023/06/13 04:37:31;;;;;;;11.17;10.27;;;16.50;99.90;;;;;;5091851;28;20201;-69
2023/06/13 04:39:58;;;;;;;8.47;7.77;;;16.90;99.90;;;;;;5091073;28;20740;-69
2023/06/13 04:42:27;;;;;;;7.60;7.00;;;17.30;99.90;;;;;;5091409;28;20168;-69
2023/06/13 04:44:56;;;;;;;11.43;7.10;;;17.70;99.90;;;;;;5091330;28;20248;-69
2023/06/13 04:47:26;;;;;;;7.57;6.87;;;18.10;99.90;;;;;;5091214;28;20344;-69
2023/06/13 04:49:57;;;;;;;7.47;6.77;;;18.20;99.90;;;;;;5091081;28;20576;-69
2023/06/13 04:52:32;;;;;;;7.32;6.72;;;18.30;99.90;;;;;;5091220;28;20256;-69
2023/06/13 04:55:00;;;;;;;8.15;6.55;;;18.60;99.90;;;;;;5091061;28;20290;-69
2023/06/13 04:57:26;;;;;;;7.57;6.90;;;18.90;99.90;;;;;;5091040;28;20193;-69
2023/06/13 04:59:52;;;;;;;7.28;6.55;;;19.20;99.90;;;;;;5089635;28;20254;-69
2023/06/13 05:02:18;;;;;;;7.38;6.40;;;19.50;99.90;;;;;;5091285;28;20200;-69
2023/06/13 05:04:44;;;;;;;7.78;7.03;;;19.90;99.90;;;;;;5091134;28;20181;-69
2023/06/13 05:07:15;;;;;;;8.20;7.60;;;20.20;99.90;;;;;;5091091;28;20197;-69
2023/06/13 05:09:44;;;;;;;8.35;7.43;;;20.60;99.90;;;;;;5090868;28;20219;-69
2023/06/13 05:12:10;;;;;;;7.75;7.13;;;20.80;99.90;;;;;;5091695;28;20192;-69
2023/06/13 05:14:37;;;;;;;7.50;6.63;;;21.00;99.90;;;;;;5092900;28;20173;-70
2023/06/13 05:17:05;;;;;;;9.18;8.25;;;20.90;99.90;;;;;;5111342;28;20207;-69
2023/06/13 05:19:31;;;;;;;9.88;9.13;;;20.80;99.90;;;;;;5110928;28;20165;-69
2023/06/13 05:22:00;;;;;;;9.18;8.52;;;20.80;99.90;;;;;;5111199;28;20173;-69
2023/06/13 05:24:25;;;;;;;8.93;8.15;;;20.70;99.90;;;;;;5111444;28;20242;-69
2023/06/13 05:26:51;;;;;;;7.97;7.15;;;20.60;99.90;;;;;;5111017;28;20204;-69
2023/06/13 05:29:17;;;;;;;8.80;8.00;;;20.50;99.90;;;;;;5110958;28;20625;-69
2023/06/13 05:31:42;;;;;;;7.20;6.60;;;20.50;99.90;;;;;;5110918;28;20260;-68
2023/06/13 05:34:08;;;;;;;8.07;7.47;;;20.50;99.90;;;;;;5112985;28;20278;-69
2023/06/13 05:36:33;;;;;;;10.85;7.57;;;20.50;99.90;;;;;;5114624;28;20263;-69
2023/06/13 05:39:00;;;;;;;6.90;6.28;;;20.80;99.90;;;;;;5114800;28;20201;-68
2023/06/13 05:41:26;;;;;;;9.93;7.35;;;21.30;99.90;;;;;;5114635;28;20264;-69
2023/06/13 05:43:51;;;;;;;6.80;6.30;;;21.70;99.90;;;;;;5115007;28;20756;-69
2023/06/13 05:46:17;;;;;;;6.47;5.88;;;22.10;99.90;;;;;;5114655;28;20249;-68
2023/06/13 05:48:43;;;;;;;6.43;5.78;;;22.60;99.90;;;;;;5114645;28;20173;-69
2023/06/13 05:51:08;;;;;;;8.02;5.75;;;23.00;99.90;;;;;;5114481;28;20210;-69
2023/06/13 05:53:34;;;;;;;6.05;5.45;;;23.30;99.90;;;;;;5114432;28;20239;-69
2023/06/13 05:56:00;;;;;;;9.77;5.15;;;23.80;99.90;;;;;;5114303;28;20200;-69
2023/06/13 05:58:25;;;;;;;5.65;5.18;;;24.30;99.90;;;;;;5114522;28;20248;-69
2023/06/13 06:00:52;;;;;;;7.40;5.93;;;24.70;99.90;;;;;;5114055;28;20169;-69
2023/06/13 06:03:18;;;;;;;6.15;5.55;;;25.10;99.90;;;;;;5114367;28;20230;-69
2023/06/13 06:05:44;;;;;;;5.53;5.03;;;25.40;99.90;;;;;;5113911;28;20697;-69
2023/06/13 06:08:09;;;;;;;7.22;5.65;;;25.60;99.90;;;;;;5100845;28;20184;-70
2023/06/13 06:10:35;;;;;;;12.55;7.20;;;25.90;99.90;;;;;;5103585;28;20231;-69
2023/06/13 06:13:00;;;;;;;7.63;6.95;;;25.90;99.90;;;;;;5099573;28;20187;-69
2023/06/13 06:15:26;;;;;;;7.93;7.18;;;26.00;99.90;;;;;;5111925;28;20265;-68
2023/06/13 06:17:52;;;;;;;7.95;7.15;;;26.10;99.90;;;;;;5113762;28;20240;-68
2023/06/13 06:20:17;;;;;;;7.38;6.78;;;26.30;99.90;;;;;;5113856;28;20187;-68
2023/06/13 06:22:43;;;;;;;8.50;7.50;;;26.20;99.90;;;;;;5113694;28;20180;-68
2023/06/13 06:25:12;;;;;;;7.10;6.50;;;26.10;99.90;;;;;;5113613;28;20234;-68
2023/06/13 06:27:38;;;;;;;7.45;6.85;;;26.10;99.90;;;;;;5104298;28;20182;-68
2023/06/13 06:30:04;;;;;;;8.35;6.88;;;26.10;99.90;;;;;;5092948;28;20162;-68
2023/06/13 06:32:30;;;;;;;6.40;5.88;;;26.10;99.90;;;;;;5095471;28;20184;-68
2023/06/13 06:34:56;;;;;;;8.07;7.25;;;26.30;99.90;;;;;;5113287;28;20184;-68
2023/06/13 06:37:22;;;;;;;6.63;6.07;;;26.30;99.90;;;;;;5113555;28;20189;-68
2023/06/13 06:39:48;;;;;;;5.68;5.28;;;26.30;99.90;;;;;;5113168;28;20161;-68
2023/06/13 06:42:13;;;;;;;6.47;5.88;;;26.20;99.90;;;;;;5113552;28;20177;-68
2023/06/13 06:44:40;;;;;;;8.90;8.20;;;26.20;99.90;;;;;;5113414;28;20168;-68
2023/06/13 06:47:05;;;;;;;6.00;5.40;;;26.30;99.90;;;;;;5113030;28;20181;-68
2023/06/13 06:49:31;;;;;;;6.53;6.03;;;26.30;99.90;;;;;;5113004;28;20177;-68
2023/06/13 06:51:56;;;;;;;6.18;5.55;;;26.40;99.10;;;;;;5113554;28;20184;-68
2023/06/13 06:54:22;;;;;;;6.38;5.07;;;26.40;99.50;;;;;;5113448;28;20164;-68
2023/06/13 06:56:48;;;;;;;5.65;5.15;;;26.50;99.90;;;;;;5112932;28;20200;-68
2023/06/13 06:59:14;;;;;;;7.35;6.78;;;26.70;99.50;;;;;;5113048;28;20168;-68
2023/06/13 07:01:40;;;;;;;8.77;6.22;;;26.80;97.60;;;;;;5099804;28;20177;-68
2023/06/13 07:04:05;;;;;;;8.52;4.70;;;26.80;97.90;;;;;;5092773;28;20252;-68
2023/06/13 07:06:31;;;;;;;6.78;4.97;;;26.90;97.20;;;;;;5092583;28;20618;-68
2023/06/13 07:08:57;;;;;;;5.55;5.10;;;27.10;98.00;;;;;;5092446;28;20173;-68
2023/06/13 07:11:22;;;;;;;5.65;5.25;;;27.40;97.70;;;;;;5092388;28;20165;-68
2023/06/13 07:13:48;;;;;;;4.97;4.47;;;27.40;97.30;;;;;;5092390;28;20209;-68
2023/06/13 07:16:13;;;;;;;5.93;5.32;;;27.60;96.50;;;;;;5093729;28;20213;-68
2023/06/13 07:18:39;;;;;;;8.65;5.75;;;27.70;95.40;;;;;;5092194;28;20174;-68
2023/06/13 07:21:05;;;;;;;7.43;5.85;;;27.80;95.50;;;;;;5091827;28;20626;-68
2023/06/13 07:23:30;;;;;;;5.40;4.95;;;27.90;95.30;;;;;;5092263;28;20168;-68
2023/06/13 07:25:56;;;;;;;6.63;5.35;;;27.90;94.50;;;;;;5091937;28;20708;-68
2023/06/13 07:28:22;;;;;;;6.78;4.95;;;27.50;95.40;;;;;;5092334;28;20264;-68
2023/06/13 07:30:47;;;;;;;5.53;4.68;;;27.60;95.60;;;;;;5101619;28;20630;-68
2023/06/13 07:33:13;;;;;;;6.93;5.07;;;28.10;96.50;;;;;;5112658;28;20203;-68
2023/06/13 07:35:39;;;;;;;6.97;6.30;;;28.40;96.20;;;;;;5107382;28;20185;-68
2023/06/13 07:38:05;;;;;;;5.25;4.60;;;28.90;95.00;;;;;;5101850;28;20180;-68
2023/06/13 07:40:31;;;;;;;5.60;5.05;;;29.20;95.70;;;;;;5097126;28;20169;-68
2023/06/13 07:42:56;;;;;;;5.38;4.97;;;29.60;93.00;;;;;;5091797;28;20194;-68
2023/06/13 07:45:22;;;;;;;7.68;7.18;;;29.40;92.30;;;;;;5109064;28;20607;-68
2023/06/13 07:47:47;;;;;;;6.97;6.38;;;29.20;91.40;;;;;;5111932;28;20168;-69
2023/06/13 07:50:13;;;;;;;5.80;5.40;;;28.80;91.10;;;;;;5112266;28;20173;-68
2023/06/13 07:52:40;;;;;;;5.35;4.97;;;28.50;90.80;;;;;;5110592;28;20177;-68
2023/06/13 07:55:06;;;;;;;6.03;5.38;;;28.40;91.60;;;;;;5111372;28;20181;-67
2023/06/13 07:57:31;;;;;;;5.55;5.15;;;28.40;90.60;;;;;;5111505;28;20666;-68
2023/06/13 07:59:57;;;;;;;5.97;5.38;;;28.40;91.50;;;;;;5111264;28;20173;-68
2023/06/13 08:02:23;;;;;;;5.95;5.10;;;28.40;92.00;;;;;;5111735;28;20653;-68
2023/06/13 08:04:49;;;;;;;7.18;5.28;;;28.60;91.60;;;;;;5099208;28;20173;-68
2023/06/13 08:07:15;;;;;;;4.82;4.43;;;28.80;90.70;;;;;;5091662;28;20192;-68
2023/06/13 08:09:40;;;;;;;5.30;4.90;;;29.10;91.70;;;;;;5091264;28;20539;-68
2023/06/13 08:12:07;;;;;;;5.13;4.70;;;29.40;93.00;;;;;;5091722;28;20537;-68
2023/06/13 08:14:32;;;;;;;4.40;4.10;;;29.70;92.80;;;;;;5101380;28;20184;-68
2023/06/13 08:16:58;;;;;;;4.50;4.10;;;30.10;91.20;;;;;;5111571;28;20204;-68
2023/06/13 08:19:23;;;;;;;6.68;4.57;;;30.30;88.60;;;;;;5111562;28;20172;-68
2023/06/13 08:21:49;;;;;;;4.97;4.50;;;30.80;87.40;;;;;;5110614;28;20169;-68
2023/06/13 08:24:15;;;;;;;5.60;5.10;;;31.10;87.50;;;;;;5111462;28;20243;-68
2023/06/13 08:26:40;;;;;;;5.82;5.40;;;31.00;84.00;;;;;;5111877;28;20205;-68
2023/06/13 08:29:06;;;;;;;5.95;5.45;;;31.10;83.40;;;;;;5110043;28;20177;-68
2023/06/13 08:31:32;;;;;;;5.32;4.82;;;31.10;82.20;;;;;;5111613;28;20173;-68
2023/06/13 08:33:59;;;;;;;5.95;5.38;;;30.90;81.90;;;;;;5105537;28;20173;-67
2023/06/13 08:36:25;;;;;;;4.95;4.63;;;30.90;83.00;;;;;;5091144;28;20208;-68
2023/06/13 08:38:57;;;;;;;6.03;5.63;;;30.80;81.90;;;;;;5091085;28;20201;-68
2023/06/13 08:41:24;;;;;;;5.18;4.75;;;30.90;81.30;;;;;;5091033;28;20177;-68
2023/06/13 08:43:51;;;;;;;5.70;5.15;;;31.00;81.90;;;;;;5097324;28;20173;-68
2023/06/13 08:46:16;;;;;;;4.63;4.22;;;31.10;78.70;;;;;;5111267;28;20197;-68
2023/06/13 08:48:42;;;;;;;5.50;4.93;;;31.30;84.10;;;;;;5111471;28;20192;-68
2023/06/13 08:51:13;;;;;;;5.25;4.85;;;31.70;81.40;;;;;;5111305;28;20674;-68
2023/06/13 08:53:52;;;;;;;4.57;4.18;;;31.90;79.70;;;;;;5106136;28;20674;-68
2023/06/13 08:56:25;;;;;;;338.90;44.78;;;32.10;77.50;;;;;;5090947;28;20209;-68
2023/06/13 08:58:58;;;;;;;4.90;4.35;;;32.20;78.20;;;;;;5091051;28;20174;-68
2023/06/13 09:01:25;;;;;;;39.92;8.90;;;32.20;78.90;;;;;;5090636;28;20174;-68
2023/06/13 09:03:51;;;;;;;32.97;9.23;;;31.80;77.30;;;;;;5098111;28;20228;-68
2023/06/13 09:06:19;;;;;;;7.20;5.15;;;31.80;80.90;;;;;;5091134;28;20181;-68
2023/06/13 09:08:45;;;;;;;12.43;5.00;;;31.50;77.30;;;;;;5092080;28;20507;-68
2023/06/13 09:11:11;;;;;;;8.20;4.20;;;31.80;81.30;;;;;;5094698;28;20258;-68
2023/06/13 09:13:38;;;;;;;4.80;4.40;;;32.00;78.80;;;;;;5094757;28;20663;-68
2023/06/13 09:16:04;;;;;;;4.97;4.53;;;31.80;79.90;;;;;;5094496;28;20209;-68
2023/06/13 09:18:35;;;;;;;4.97;4.50;;;31.70;75.30;;;;;;5094790;28;20177;-68
2023/06/13 09:21:01;;;;;;;4.50;4.10;;;31.60;76.10;;;;;;5093499;28;20161;-68
2023/06/13 09:23:27;;;;;;;5.75;3.80;;;31.40;80.80;;;;;;5094616;28;20263;-68
2023/06/13 09:25:55;;;;;;;4.82;4.35;;;31.30;74.40;;;;;;5094257;28;20209;-67
2023/06/13 09:28:32;;;;;;;6.68;3.97;;;31.30;74.60;;;;;;5094517;28;20162;-68
2023/06/13 09:30:58;;;;;;;5.22;4.82;;;31.30;78.70;;;;;;5094096;28;20169;-68
2023/06/13 09:33:24;;;;;;;5.95;5.22;;;31.60;75.00;;;;;;5114808;28;20176;-68
2023/06/13 09:35:53;;;;;;;5.10;4.60;;;31.90;76.80;;;;;;5113084;27;20203;-67
2023/06/13 09:38:23;;;;;;;5.80;4.35;;;32.10;73.50;;;;;;5104572;28;20173;-68
2023/06/13 09:40:50;;;;;;;4.95;4.55;;;32.50;75.60;;;;;;5094140;28;20631;-67
2023/06/13 09:43:17;;;;;;;4.47;3.90;;;32.60;73.00;;;;;;5094245;28;20172;-68
2023/06/13 09:45:43;;;;;;;8.88;3.90;;;32.40;75.70;;;;;;5093833;28;20189;-68
2023/06/13 09:48:09;;;;;;;5.05;4.55;;;32.50;75.90;;;;;;5094308;28;20223;-67
2023/06/13 09:50:36;;;;;;;4.13;3.83;;;32.80;76.00;;;;;;5093991;28;20169;-67
2023/06/13 09:53:02;;;;;;;4.25;3.92;;;32.80;71.10;;;;;;5094547;28;20269;-66
2023/06/13 09:55:27;;;;;;;6.57;4.88;;;32.50;72.50;;;;;;5094128;28;20600;-67
2023/06/13 09:57:53;;;;;;;5.65;4.85;;;32.40;72.50;;;;;;5098802;28;20273;-67
2023/06/13 10:00:20;;;;;;;5.63;5.13;;;32.30;68.50;;;;;;5113771;28;20674;-66
2023/06/13 10:02:46;;;;;;;5.03;4.55;;;32.20;75.10;;;;;;5114124;28;20740;-67
2023/06/13 10:05:13;;;;;;;4.82;4.43;;;32.30;74.20;;;;;;5114160;28;20251;-67
2023/06/13 10:07:39;;;;;;;5.75;4.85;;;32.50;74.00;;;;;;5111848;28;20180;-67
2023/06/13 10:10:06;;;;;;;5.82;5.40;;;32.60;70.40;;;;;;5113780;28;20873;-67
2023/06/13 10:12:36;;;;;;;4.90;4.53;;;32.80;74.50;;;;;;5103926;28;20638;-67
2023/06/13 10:15:05;;;;;;;6.65;6.05;;;33.20;74.80;;;;;;5093472;28;20181;-67
2023/06/13 10:17:35;;;;;;;4.43;4.03;;;33.10;69.30;;;;;;5093523;28;20196;-67
2023/06/13 10:20:10;;;;;;;4.70;4.35;;;33.30;72.30;;;;;;5091780;28;20169;-67
2023/06/13 10:22:37;;;;;;;5.07;4.57;;;33.70;72.80;;;;;;5093907;28;20649;-67
2023/06/13 10:25:03;;;;;;;4.50;4.10;;;34.10;70.10;;;;;;5093177;28;20172;-67
2023/06/13 10:27:29;;;;;;;4.95;4.38;;;33.90;68.50;;;;;;5113449;28;20219;-67
2023/06/13 10:30:36;;;;;;;5.43;4.95;;;33.40;67.80;;;;;;5113523;28;20254;-67
2023/06/13 10:33:28;;;;;;;4.47;4.07;;;33.00;65.90;;;;;;5113986;28;20172;-67
2023/06/13 10:36:18;;;;;;;6.47;4.18;;;32.90;68.00;;;;;;5112468;28;20291;-67
2023/06/13 10:39:22;;;;;;;5.10;4.63;;;33.60;73.10;;;;;;5114510;28;20176;-67
2023/06/13 10:42:07;;;;;;;5.15;4.75;;;33.90;68.00;;;;;;5112382;28;20177;-67
2023/06/13 10:44:54;;;;;;;7.30;4.65;;;33.90;67.10;;;;;;5114388;28;20258;-67
2023/06/13 10:47:22;;;;;;;5.75;5.20;;;33.80;63.00;;;;;;5114304;28;20659;-67
2023/06/13 10:49:49;;;;;;;5.07;4.78;;;33.80;65.70;;;;;;5113476;28;20184;-67
2023/06/13 10:52:17;;;;;;;5.03;4.63;;;33.80;61.70;;;;;;5106129;28;20172;-67
2023/06/13 10:54:51;;;;;;;5.18;4.35;;;33.40;62.80;;;;;;5093759;28;20227;-67
2023/06/13 10:57:16;;;;;;;5.10;4.70;;;33.20;64.30;;;;;;5092062;28;20255;-67
2023/06/13 10:59:42;;;;;;;5.45;4.95;;;33.30;67.30;;;;;;5093180;28;20169;-67
2023/06/13 11:02:15;;;;;;;4.88;4.43;;;33.80;65.20;;;;;;5098528;28;20248;-67
2023/06/13 11:04:48;;;;;;;5.55;5.10;;;34.10;64.10;;;;;;5113759;28;20165;-67
2023/06/13 11:07:23;;;;;;;6.03;4.95;;;34.70;60.00;;;;;;5097203;28;20254;-67
2023/06/13 11:10:14;;;;;;;5.32;4.40;;;35.10;61.20;;;;;;5099660;28;20221;-67
2023/06/13 11:12:44;;;;;;;5.80;5.30;;;35.40;66.30;;;;;;5113254;28;20175;-67
2023/06/13 11:15:25;;;;;;;6.40;5.80;;;35.60;59.80;;;;;;5112798;28;20650;-68
2023/06/13 11:18:07;;;;;;;6.75;6.15;;;35.50;59.50;;;;;;5112720;27;20215;-67
2023/06/13 11:20:52;;;;;;;6.10;5.60;;;35.30;60.10;;;;;;5102170;28;20177;-67
2023/06/13 11:23:36;;;;;;;8.95;8.18;;;34.90;60.80;;;;;;5092486;28;20226;-67
2023/06/13 11:26:03;;;;;;;7.30;6.82;;;34.10;57.00;;;;;;5091945;28;20212;-67
2023/06/13 11:28:33;;;;;;;5.40;4.97;;;34.00;58.10;;;;;;5092542;28;20162;-67
2023/06/13 11:31:04;;;;;;;6.10;5.70;;;34.20;59.40;;;;;;5091337;28;20606;-67
2023/06/13 11:33:40;;;;;;;6.30;5.68;;;34.80;57.70;;;;;;5092160;28;20197;-67
2023/06/13 11:36:06;;;;;;;6.78;6.15;;;35.20;65.20;;;;;;5108466;28;20203;-67
2023/06/13 11:38:44;;;;;;;6.70;6.30;;;35.00;56.90;;;;;;5110260;28;20161;-67
2023/06/13 11:41:11;;;;;;;6.43;5.90;;;35.00;57.00;;;;;;5092013;28;20252;-67
2023/06/13 11:43:37;;;;;;;6.60;6.03;;;34.90;60.80;;;;;;5092195;28;20166;-67
2023/06/13 11:46:04;;;;;;;7.60;7.10;;;34.90;61.00;;;;;;5091634;28;20534;-68
2023/06/13 11:48:30;;;;;;;6.72;5.88;;;34.70;59.40;;;;;;5092198;28;20753;-67
2023/06/13 11:51:12;;;;;;;6.38;5.97;;;34.40;57.60;;;;;;5091579;28;20204;-67
2023/06/13 11:53:54;;;;;;;5.88;5.38;;;34.30;58.50;;;;;;5092109;28;20165;-67
2023/06/13 11:56:24;;;;;;;5.95;5.45;;;34.60;58.10;;;;;;5091726;28;20205;-67
2023/06/13 11:58:52;;;;;;;7.18;6.45;;;34.80;58.40;;;;;;5091659;28;20162;-67
2023/06/13 12:01:21;;;;;;;7.45;6.95;;;34.80;57.10;;;;;;5091631;28;20574;-68
2023/06/13 12:03:48;;;;;;;5.78;5.22;;;34.70;57.80;;;;;;5104788;28;20200;-67
2023/06/13 12:06:15;;;;;;;7.05;6.45;;;34.30;58.20;;;;;;5112321;28;20715;-67
2023/06/13 12:08:47;;;;;;;6.78;6.28;;;34.30;57.90;;;;;;5110352;28;20264;-67
2023/06/13 12:11:17;;;;;;;5.72;5.18;;;34.50;60.50;;;;;;5096117;28;20178;-67
2023/06/13 12:13:53;;;;;;;6.55;6.05;;;34.60;57.10;;;;;;5091611;28;20208;-68
2023/06/13 12:16:22;;;;;;;5.85;4.90;;;35.10;57.70;;;;;;5091310;28;20711;-67
2023/06/13 12:18:53;;;;;;;6.20;5.80;;;35.20;54.90;;;;;;5111198;28;20610;-67
2023/06/13 12:21:21;;;;;;;7.43;6.72;;;35.00;59.30;;;;;;5110668;28;20164;-67
2023/06/13 12:23:47;;;;;;;6.80;5.57;;;35.00;54.30;;;;;;5111756;28;20515;-67
2023/06/13 12:26:13;;;;;;;6.07;5.57;;;35.20;54.20;;;;;;5111790;28;20243;-68
2023/06/13 12:28:42;;;;;;;7.07;6.40;;;35.20;57.30;;;;;;5111153;28;20275;-67
2023/06/13 12:31:09;;;;;;;6.32;5.65;;;35.30;55.20;;;;;;5104268;28;20174;-67
2023/06/13 12:33:35;;;;;;;7.32;6.82;;;35.40;56.60;;;;;;5091859;28;20174;-67
2023/06/13 12:36:04;;;;;;;9.85;7.25;;;35.30;57.70;;;;;;5091318;28;20255;-67
2023/06/13 12:38:31;;;;;;;4.60;4.30;;;35.40;62.30;;;;;;5091475;28;20169;-67
2023/06/13 12:40:58;;;;;;;5.63;5.00;;;35.80;57.70;;;;;;5107723;28;20173;-67
2023/06/13 12:43:28;;;;;;;7.13;6.53;;;35.50;52.30;;;;;;5114919;28;20668;-67
2023/06/13 12:45:58;;;;;;;6.13;5.53;;;35.50;53.60;;;;;;5108786;28;20330;-67
2023/06/13 12:48:24;;;;;;;6.78;6.28;;;35.20;52.40;;;;;;5095080;28;20169;-68
2023/06/13 12:50:51;;;;;;;6.07;5.65;;;35.30;55.30;;;;;;5095189;28;20169;-67